sensor_id;sensor_type;location;lat;lon;timestamp;P1;P2;P0
73935;PMS5003;62287;50.858;0.252;2023-06-22T00:00:26;10.0;9.0;
73935;PMS5003;62287;50.858;0.252;2023-06-22T00:00:58;11.0;10.0;
73935;PMS5003;62287;50.858;0.252;2023-06-22T00:01:29;10.0;8.0;
73935;PMS5003;62287;50.858;0.252;2023-06-22T00:02:00;11.0;11.0;
73935;PMS5003;62287;50.858;0.252;2023-06-22T00:02:31;10.0;10.0;
73935;PMS5003;62287;50.858;0.252;2023-06-22T00:03:02;14.0;14.0;
73935;PMS5003;62287;50.858;0.252;2023-06-22T00:03:33;10.0;10.0;
73935;PMS5003;62287;50.858;0.252;2023-06-22T00:04:04;10.0;10.0;
73935;PMS5003;62287;50.858;0.252;2023-06-22T00:04:35;9.0;9.0;
73935;PMS5003;62287;50.858;0.252;2023-06-22T00:05:06;9.0;9.0;
73935;PMS5003;62287;50.858;0.252;2023-06-22T00:05:37;11.0;11.0;
73935;PMS5003;62287;50.858;0.252;2023-06-22T00:06:08;10.0;10.0;
73935;PMS5003;62287;50.858;0.252;2023-06-22T00:06:39;10.0;9.0;
73935;PMS5003;62287;50.858;0.252;2023-06-22T00:07:10;10.0;10.0;
73935;PMS5003;62287;50.858;0.252;2023-06-22T00:07:41;10.0;9.0;
73935;PMS5003;62287;50.858;0.252;2023-06-22T00:08:12;12.0;11.0;
73935;PMS5003;62287;50.858;0.252;2023-06-22T00:08:43;11.0;11.0;
73935;PMS5003;62287;50.858;0.252;2023-06-22T00:09:14;11.0;11.0;
73935;PMS5003;62287;50.858;0.252;2023-06-22T00:09:45;11.0;10.0;
73935;PMS5003;62287;50.858;0.252;2023-06-22T00:10:16;12.0;10.0;
73935;PMS5003;62287;50.858;0.252;2023-06-22T00:10:47;10.0;10.0;
73935;PMS5003;62287;50.858;0.252;2023-06-22T00:11:18;13.0;11.0;
73935;PMS5003;62287;50.858;0.252;2023-06-22T00:11:49;12.0;10.0;
73935;PMS5003;62287;50.858;0.252;2023-06-22T00:12:20;10.0;10.0;
73935;PMS5003;62287;50.858;0.252;2023-06-22T00:12:51;10.0;9.0;
73935;PMS5003;62287;50.858;0.252;2023-06-22T00:13:22;13.0;13.0;
73935;PMS5003;62287;50.858;0.252;2023-06-22T00:13:53;10.0;10.0;
73935;PMS5003;62287;50.858;0.252;2023-06-22T00:14:24;11.0;11.0;
73935;PMS5003;62287;50.858;0.252;2023-06-22T00:14:55;10.0;10.0;
73935;PMS5003;62287;50.858;0.252;2023-06-22T00:15:26;10.0;10.0;
73935;PMS5003;62287;50.858;0.252;2023-06-22T00:15:57;8.0;8.0;
73935;PMS5003;62287;50.858;0.252;2023-06-22T00:16:28;11.0;11.0;
73935;PMS5003;62287;50.858;0.252;2023-06-22T00:17:00;12.0;12.0;
73935;PMS5003;62287;50.858;0.252;2023-06-22T00:17:31;11.0;11.0;
73935;PMS5003;62287;50.858;0.252;2023-06-22T00:18:02;8.0;8.0;
73935;PMS5003;62287;50.858;0.252;2023-06-22T00:18:33;10.0;9.0;
73935;PMS5003;62287;50.858;0.252;2023-06-22T00:19:04;13.0;11.0;
73935;PMS5003;62287;50.858;0.252;2023-06-22T00:19:35;11.0;11.0;
73935;PMS5003;62287;50.858;0.252;2023-06-22T00:20:07;11.0;11.0;
73935;PMS5003;62287;50.858;0.252;2023-06-22T00:20:38;11.0;11.0;
73935;PMS5003;62287;50.858;0.252;2023-06-22T00:21:10;9.0;9.0;
73935;PMS5003;62287;50.858;0.252;2023-06-22T00:21:41;15.0;14.0;
73935;PMS5003;62287;50.858;0.252;2023-06-22T00:22:12;11.0;11.0;
73935;PMS5003;62287;50.858;0.252;2023-06-22T00:22:43;10.0;10.0;
73935;PMS5003;62287;50.858;0.252;2023-06-22T00:23:14;9.0;9.0;
73935;PMS5003;62287;50.858;0.252;2023-06-22T00:23:45;8.0;8.0;
73935;PMS5003;62287;50.858;0.252;2023-06-22T00:24:16;11.0;10.0;
73935;PMS5003;62287;50.858;0.252;2023-06-22T00:24:47;12.0;11.0;
73935;PMS5003;62287;50.858;0.252;2023-06-22T00:25:18;12.0;9.0;
73935;PMS5003;62287;50.858;0.252;2023-06-22T00:25:49;16.0;13.0;
73935;PMS5003;62287;50.858;0.252;2023-06-22T00:26:21;13.0;13.0;
73935;PMS5003;62287;50.858;0.252;2023-06-22T00:26:52;11.0;11.0;
73935;PMS5003;62287;50.858;0.252;2023-06-22T00:27:23;13.0;13.0;
73935;PMS5003;62287;50.858;0.252;2023-06-22T00:27:53;12.0;10.0;
73935;PMS5003;62287;50.858;0.252;2023-06-22T00:28:24;11.0;11.0;
73935;PMS5003;62287;50.858;0.252;2023-06-22T00:28:55;14.0;12.0;
73935;PMS5003;62287;50.858;0.252;2023-06-22T00:29:26;11.0;10.0;
73935;PMS5003;62287;50.858;0.252;2023-06-22T00:29:57;8.0;8.0;
73935;PMS5003;62287;50.858;0.252;2023-06-22T00:30:28;13.0;13.0;
73935;PMS5003;62287;50.858;0.252;2023-06-22T00:31:02;10.0;10.0;
73935;PMS5003;62287;50.858;0.252;2023-06-22T00:31:33;12.0;11.0;
73935;PMS5003;62287;50.858;0.252;2023-06-22T00:32:04;9.0;8.0;
73935;PMS5003;62287;50.858;0.252;2023-06-22T00:32:35;12.0;11.0;
73935;PMS5003;62287;50.858;0.252;2023-06-22T00:33:06;12.0;10.0;
73935;PMS5003;62287;50.858;0.252;2023-06-22T00:33:37;10.0;9.0;
73935;PMS5003;62287;50.858;0.252;2023-06-22T00:34:08;10.0;10.0;
73935;PMS5003;62287;50.858;0.252;2023-06-22T00:34:39;12.0;11.0;
73935;PMS5003;62287;50.858;0.252;2023-06-22T00:35:11;11.0;11.0;
73935;PMS5003;62287;50.858;0.252;2023-06-22T00:35:42;11.0;10.0;
73935;PMS5003;62287;50.858;0.252;2023-06-22T00:36:13;11.0;11.0;
73935;PMS5003;62287;50.858;0.252;2023-06-22T00:36:44;9.0;9.0;
73935;PMS5003;62287;50.858;0.252;2023-06-22T00:37:15;11.0;11.0;
73935;PMS5003;62287;50.858;0.252;2023-06-22T00:37:46;10.0;10.0;
73935;PMS5003;62287;50.858;0.252;2023-06-22T00:38:17;11.0;11.0;
73935;PMS5003;62287;50.858;0.252;2023-06-22T00:38:48;10.0;10.0;
73935;PMS5003;62287;50.858;0.252;2023-06-22T00:39:19;13.0;10.0;
73935;PMS5003;62287;50.858;0.252;2023-06-22T00:39:50;9.0;8.0;
73935;PMS5003;62287;50.858;0.252;2023-06-22T00:40:21;11.0;11.0;
73935;PMS5003;62287;50.858;0.252;2023-06-22T00:40:52;11.0;11.0;
73935;PMS5003;62287;50.858;0.252;2023-06-22T00:41:23;12.0;11.0;
73935;PMS5003;62287;50.858;0.252;2023-06-22T00:41:54;9.0;9.0;
73935;PMS5003;62287;50.858;0.252;2023-06-22T00:42:25;14.0;11.0;
73935;PMS5003;62287;50.858;0.252;2023-06-22T00:42:56;8.0;8.0;
73935;PMS5003;62287;50.858;0.252;2023-06-22T00:43:27;11.0;11.0;
73935;PMS5003;62287;50.858;0.252;2023-06-22T00:43:58;11.0;11.0;
73935;PMS5003;62287;50.858;0.252;2023-06-22T00:44:29;12.0;12.0;
73935;PMS5003;62287;50.858;0.252;2023-06-22T00:45:00;13.0;12.0;
73935;PMS5003;62287;50.858;0.252;2023-06-22T00:45:31;10.0;10.0;
73935;PMS5003;62287;50.858;0.252;2023-06-22T00:46:02;13.0;13.0;
73935;PMS5003;62287;50.858;0.252;2023-06-22T00:46:33;13.0;12.0;
73935;PMS5003;62287;50.858;0.252;2023-06-22T00:47:04;11.0;11.0;
73935;PMS5003;62287;50.858;0.252;2023-06-22T00:47:35;12.0;11.0;
73935;PMS5003;62287;50.858;0.252;2023-06-22T00:48:07;12.0;11.0;
73935;PMS5003;62287;50.858;0.252;2023-06-22T00:48:39;9.0;9.0;
73935;PMS5003;62287;50.858;0.252;2023-06-22T00:49:11;12.0;11.0;
73935;PMS5003;62287;50.858;0.252;2023-06-22T00:49:42;14.0;13.0;
73935;PMS5003;62287;50.858;0.252;2023-06-22T00:50:15;10.0;10.0;
73935;PMS5003;62287;50.858;0.252;2023-06-22T00:50:50;9.0;8.0;
73935;PMS5003;62287;50.858;0.252;2023-06-22T00:51:21;12.0;11.0;
73935;PMS5003;62287;50.858;0.252;2023-06-22T00:51:52;10.0;10.0;
73935;PMS5003;62287;50.858;0.252;2023-06-22T00:52:23;9.0;9.0;
73935;PMS5003;62287;50.858;0.252;2023-06-22T00:52:55;11.0;9.0;
73935;PMS5003;62287;50.858;0.252;2023-06-22T00:53:28;13.0;12.0;
73935;PMS5003;62287;50.858;0.252;2023-06-22T00:54:00;14.0;14.0;
73935;PMS5003;62287;50.858;0.252;2023-06-22T00:54:31;8.0;8.0;
73935;PMS5003;62287;50.858;0.252;2023-06-22T00:55:02;10.0;10.0;
73935;PMS5003;62287;50.858;0.252;2023-06-22T00:55:35;8.0;8.0;
73935;PMS5003;62287;50.858;0.252;2023-06-22T00:56:06;10.0;9.0;
73935;PMS5003;62287;50.858;0.252;2023-06-22T00:56:39;9.0;8.0;
73935;PMS5003;62287;50.858;0.252;2023-06-22T00:57:10;11.0;11.0;
73935;PMS5003;62287;50.858;0.252;2023-06-22T00:57:42;10.0;9.0;
73935;PMS5003;62287;50.858;0.252;2023-06-22T00:58:14;12.0;12.0;
73935;PMS5003;62287;50.858;0.252;2023-06-22T00:58:45;10.0;10.0;
73935;PMS5003;62287;50.858;0.252;2023-06-22T00:59:17;10.0;10.0;
73935;PMS5003;62287;50.858;0.252;2023-06-22T00:59:48;9.0;9.0;
73935;PMS5003;62287;50.858;0.252;2023-06-22T01:00:19;12.0;12.0;
73935;PMS5003;62287;50.858;0.252;2023-06-22T01:00:50;8.0;8.0;
73935;PMS5003;62287;50.858;0.252;2023-06-22T01:01:22;13.0;12.0;
73935;PMS5003;62287;50.858;0.252;2023-06-22T01:01:53;8.0;8.0;
73935;PMS5003;62287;50.858;0.252;2023-06-22T01:02:25;8.0;8.0;
73935;PMS5003;62287;50.858;0.252;2023-06-22T01:02:56;10.0;10.0;
73935;PMS5003;62287;50.858;0.252;2023-06-22T01:03:27;10.0;10.0;
73935;PMS5003;62287;50.858;0.252;2023-06-22T01:03:58;11.0;11.0;
73935;PMS5003;62287;50.858;0.252;2023-06-22T01:04:34;10.0;10.0;
73935;PMS5003;62287;50.858;0.252;2023-06-22T01:05:07;13.0;11.0;
73935;PMS5003;62287;50.858;0.252;2023-06-22T01:05:38;11.0;11.0;
73935;PMS5003;62287;50.858;0.252;2023-06-22T01:06:10;9.0;9.0;
73935;PMS5003;62287;50.858;0.252;2023-06-22T01:06:51;11.0;9.0;
73935;PMS5003;62287;50.858;0.252;2023-06-22T01:07:28;9.0;9.0;
73935;PMS5003;62287;50.858;0.252;2023-06-22T01:08:08;9.0;7.0;
73935;PMS5003;62287;50.858;0.252;2023-06-22T01:08:50;8.0;8.0;
73935;PMS5003;62287;50.858;0.252;2023-06-22T01:09:28;12.0;12.0;
73935;PMS5003;62287;50.858;0.252;2023-06-22T01:10:06;6.0;6.0;
73935;PMS5003;62287;50.858;0.252;2023-06-22T01:10:44;9.0;9.0;
73935;PMS5003;62287;50.858;0.252;2023-06-22T01:11:20;11.0;10.0;
73935;PMS5003;62287;50.858;0.252;2023-06-22T01:11:57;11.0;11.0;
73935;PMS5003;62287;50.858;0.252;2023-06-22T01:12:33;8.0;8.0;
73935;PMS5003;62287;50.858;0.252;2023-06-22T01:13:11;11.0;11.0;
73935;PMS5003;62287;50.858;0.252;2023-06-22T01:13:54;12.0;12.0;
73935;PMS5003;62287;50.858;0.252;2023-06-22T01:14:31;9.0;9.0;
73935;PMS5003;62287;50.858;0.252;2023-06-22T01:15:08;11.0;11.0;
73935;PMS5003;62287;50.858;0.252;2023-06-22T01:15:45;10.0;9.0;
73935;PMS5003;62287;50.858;0.252;2023-06-22T01:16:22;9.0;9.0;
73935;PMS5003;62287;50.858;0.252;2023-06-22T01:16:56;12.0;11.0;
73935;PMS5003;62287;50.858;0.252;2023-06-22T01:17:30;13.0;11.0;
73935;PMS5003;62287;50.858;0.252;2023-06-22T01:18:02;11.0;11.0;
73935;PMS5003;62287;50.858;0.252;2023-06-22T01:18:35;11.0;11.0;
73935;PMS5003;62287;50.858;0.252;2023-06-22T01:19:15;10.0;10.0;
73935;PMS5003;62287;50.858;0.252;2023-06-22T01:19:59;9.0;8.0;
73935;PMS5003;62287;50.858;0.252;2023-06-22T01:20:32;8.0;8.0;
73935;PMS5003;62287;50.858;0.252;2023-06-22T01:21:06;8.0;8.0;
73935;PMS5003;62287;50.858;0.252;2023-06-22T01:21:37;10.0;10.0;
73935;PMS5003;62287;50.858;0.252;2023-06-22T01:22:09;9.0;9.0;
73935;PMS5003;62287;50.858;0.252;2023-06-22T01:22:46;7.0;7.0;
73935;PMS5003;62287;50.858;0.252;2023-06-22T01:23:29;8.0;8.0;
73935;PMS5003;62287;50.858;0.252;2023-06-22T01:24:10;9.0;9.0;
73935;PMS5003;62287;50.858;0.252;2023-06-22T01:24:51;9.0;9.0;
73935;PMS5003;62287;50.858;0.252;2023-06-22T01:25:32;7.0;7.0;
73935;PMS5003;62287;50.858;0.252;2023-06-22T01:26:16;13.0;10.0;
73935;PMS5003;62287;50.858;0.252;2023-06-22T01:26:54;9.0;8.0;
73935;PMS5003;62287;50.858;0.252;2023-06-22T01:27:33;10.0;10.0;
73935;PMS5003;62287;50.858;0.252;2023-06-22T01:28:14;8.0;8.0;
73935;PMS5003;62287;50.858;0.252;2023-06-22T01:28:56;11.0;11.0;
73935;PMS5003;62287;50.858;0.252;2023-06-22T01:29:29;8.0;7.0;
73935;PMS5003;62287;50.858;0.252;2023-06-22T01:30:03;9.0;9.0;
73935;PMS5003;62287;50.858;0.252;2023-06-22T01:30:36;9.0;7.0;
73935;PMS5003;62287;50.858;0.252;2023-06-22T01:31:08;9.0;9.0;
73935;PMS5003;62287;50.858;0.252;2023-06-22T01:31:41;9.0;9.0;
73935;PMS5003;62287;50.858;0.252;2023-06-22T01:32:13;8.0;8.0;
73935;PMS5003;62287;50.858;0.252;2023-06-22T01:32:46;7.0;7.0;
73935;PMS5003;62287;50.858;0.252;2023-06-22T01:33:18;8.0;8.0;
73935;PMS5003;62287;50.858;0.252;2023-06-22T01:33:51;6.0;6.0;
73935;PMS5003;62287;50.858;0.252;2023-06-22T01:34:25;9.0;8.0;
73935;PMS5003;62287;50.858;0.252;2023-06-22T01:35:00;8.0;8.0;
73935;PMS5003;62287;50.858;0.252;2023-06-22T01:35:33;7.0;6.0;
73935;PMS5003;62287;50.858;0.252;2023-06-22T01:36:04;8.0;7.0;
73935;PMS5003;62287;50.858;0.252;2023-06-22T01:36:36;7.0;7.0;
73935;PMS5003;62287;50.858;0.252;2023-06-22T01:37:09;8.0;8.0;
73935;PMS5003;62287;50.858;0.252;2023-06-22T01:37:40;7.0;6.0;
73935;PMS5003;62287;50.858;0.252;2023-06-22T01:38:11;9.0;9.0;
73935;PMS5003;62287;50.858;0.252;2023-06-22T01:38:43;9.0;7.0;
73935;PMS5003;62287;50.858;0.252;2023-06-22T01:39:16;6.0;6.0;
73935;PMS5003;62287;50.858;0.252;2023-06-22T01:39:48;8.0;8.0;
73935;PMS5003;62287;50.858;0.252;2023-06-22T01:40:20;7.0;6.0;
73935;PMS5003;62287;50.858;0.252;2023-06-22T01:40:52;9.0;9.0;
73935;PMS5003;62287;50.858;0.252;2023-06-22T01:41:25;11.0;9.0;
73935;PMS5003;62287;50.858;0.252;2023-06-22T01:41:57;10.0;10.0;
73935;PMS5003;62287;50.858;0.252;2023-06-22T01:42:29;9.0;9.0;
73935;PMS5003;62287;50.858;0.252;2023-06-22T01:43:01;5.0;5.0;
73935;PMS5003;62287;50.858;0.252;2023-06-22T01:43:33;7.0;7.0;
73935;PMS5003;62287;50.858;0.252;2023-06-22T01:44:06;7.0;7.0;
73935;PMS5003;62287;50.858;0.252;2023-06-22T01:44:38;8.0;8.0;
73935;PMS5003;62287;50.858;0.252;2023-06-22T01:45:10;12.0;10.0;
73935;PMS5003;62287;50.858;0.252;2023-06-22T01:45:42;9.0;7.0;
73935;PMS5003;62287;50.858;0.252;2023-06-22T01:46:13;9.0;9.0;
73935;PMS5003;62287;50.858;0.252;2023-06-22T01:46:45;8.0;8.0;
73935;PMS5003;62287;50.858;0.252;2023-06-22T01:47:18;7.0;7.0;
73935;PMS5003;62287;50.858;0.252;2023-06-22T01:47:50;7.0;7.0;
73935;PMS5003;62287;50.858;0.252;2023-06-22T01:48:21;7.0;7.0;
73935;PMS5003;62287;50.858;0.252;2023-06-22T01:48:53;7.0;7.0;
73935;PMS5003;62287;50.858;0.252;2023-06-22T01:49:25;7.0;7.0;
73935;PMS5003;62287;50.858;0.252;2023-06-22T01:49:56;7.0;7.0;
73935;PMS5003;62287;50.858;0.252;2023-06-22T01:50:27;7.0;7.0;
73935;PMS5003;62287;50.858;0.252;2023-06-22T01:50:59;9.0;9.0;
73935;PMS5003;62287;50.858;0.252;2023-06-22T01:51:30;7.0;6.0;
73935;PMS5003;62287;50.858;0.252;2023-06-22T01:52:01;7.0;7.0;
73935;PMS5003;62287;50.858;0.252;2023-06-22T01:52:33;7.0;7.0;
73935;PMS5003;62287;50.858;0.252;2023-06-22T01:53:04;7.0;7.0;
73935;PMS5003;62287;50.858;0.252;2023-06-22T01:53:35;8.0;8.0;
73935;PMS5003;62287;50.858;0.252;2023-06-22T01:54:06;7.0;7.0;
73935;PMS5003;62287;50.858;0.252;2023-06-22T01:54:37;5.0;5.0;
73935;PMS5003;62287;50.858;0.252;2023-06-22T01:55:09;7.0;7.0;
73935;PMS5003;62287;50.858;0.252;2023-06-22T01:55:40;8.0;8.0;
73935;PMS5003;62287;50.858;0.252;2023-06-22T01:56:11;9.0;8.0;
73935;PMS5003;62287;50.858;0.252;2023-06-22T01:56:43;6.0;6.0;
73935;PMS5003;62287;50.858;0.252;2023-06-22T01:57:14;7.0;7.0;
73935;PMS5003;62287;50.858;0.252;2023-06-22T01:57:45;5.0;5.0;
73935;PMS5003;62287;50.858;0.252;2023-06-22T01:58:17;5.0;5.0;
73935;PMS5003;62287;50.858;0.252;2023-06-22T01:58:55;10.0;10.0;
73935;PMS5003;62287;50.858;0.252;2023-06-22T01:59:37;8.0;8.0;
73935;PMS5003;62287;50.858;0.252;2023-06-22T02:00:17;8.0;8.0;
73935;PMS5003;62287;50.858;0.252;2023-06-22T02:00:53;5.0;5.0;
73935;PMS5003;62287;50.858;0.252;2023-06-22T02:01:31;9.0;9.0;
73935;PMS5003;62287;50.858;0.252;2023-06-22T02:02:10;6.0;6.0;
73935;PMS5003;62287;50.858;0.252;2023-06-22T02:02:43;7.0;7.0;
73935;PMS5003;62287;50.858;0.252;2023-06-22T02:03:23;7.0;7.0;
73935;PMS5003;62287;50.858;0.252;2023-06-22T02:04:00;8.0;7.0;
73935;PMS5003;62287;50.858;0.252;2023-06-22T02:04:37;9.0;9.0;
73935;PMS5003;62287;50.858;0.252;2023-06-22T02:05:15;10.0;8.0;
73935;PMS5003;62287;50.858;0.252;2023-06-22T02:05:49;9.0;8.0;
73935;PMS5003;62287;50.858;0.252;2023-06-22T02:06:34;6.0;6.0;
73935;PMS5003;62287;50.858;0.252;2023-06-22T02:07:08;6.0;5.0;
73935;PMS5003;62287;50.858;0.252;2023-06-22T02:07:46;7.0;7.0;
73935;PMS5003;62287;50.858;0.252;2023-06-22T02:08:20;7.0;7.0;
73935;PMS5003;62287;50.858;0.252;2023-06-22T02:08:53;6.0;6.0;
73935;PMS5003;62287;50.858;0.252;2023-06-22T02:09:29;6.0;6.0;
73935;PMS5003;62287;50.858;0.252;2023-06-22T02:10:04;8.0;7.0;
73935;PMS5003;62287;50.858;0.252;2023-06-22T02:10:38;7.0;6.0;
73935;PMS5003;62287;50.858;0.252;2023-06-22T02:11:12;7.0;7.0;
73935;PMS5003;62287;50.858;0.252;2023-06-22T02:11:45;7.0;7.0;
73935;PMS5003;62287;50.858;0.252;2023-06-22T02:12:18;8.0;8.0;
73935;PMS5003;62287;50.858;0.252;2023-06-22T02:12:54;6.0;6.0;
73935;PMS5003;62287;50.858;0.252;2023-06-22T02:13:27;5.0;5.0;
73935;PMS5003;62287;50.858;0.252;2023-06-22T02:13:59;3.0;3.0;
73935;PMS5003;62287;50.858;0.252;2023-06-22T02:14:30;4.0;4.0;
73935;PMS5003;62287;50.858;0.252;2023-06-22T02:15:03;5.0;5.0;
73935;PMS5003;62287;50.858;0.252;2023-06-22T02:15:35;5.0;4.0;
73935;PMS5003;62287;50.858;0.252;2023-06-22T02:16:07;9.0;9.0;
73935;PMS5003;62287;50.858;0.252;2023-06-22T02:16:38;9.0;8.0;
73935;PMS5003;62287;50.858;0.252;2023-06-22T02:17:10;4.0;4.0;
73935;PMS5003;62287;50.858;0.252;2023-06-22T02:17:41;5.0;5.0;
73935;PMS5003;62287;50.858;0.252;2023-06-22T02:18:13;6.0;6.0;
73935;PMS5003;62287;50.858;0.252;2023-06-22T02:18:45;6.0;6.0;
73935;PMS5003;62287;50.858;0.252;2023-06-22T02:19:17;6.0;6.0;
73935;PMS5003;62287;50.858;0.252;2023-06-22T02:19:52;6.0;6.0;
73935;PMS5003;62287;50.858;0.252;2023-06-22T02:20:24;7.0;7.0;
73935;PMS5003;62287;50.858;0.252;2023-06-22T02:20:55;7.0;7.0;
73935;PMS5003;62287;50.858;0.252;2023-06-22T02:21:26;9.0;8.0;
73935;PMS5003;62287;50.858;0.252;2023-06-22T02:21:57;6.0;6.0;
73935;PMS5003;62287;50.858;0.252;2023-06-22T02:22:28;8.0;7.0;
73935;PMS5003;62287;50.858;0.252;2023-06-22T02:22:59;5.0;5.0;
73935;PMS5003;62287;50.858;0.252;2023-06-22T02:23:30;9.0;7.0;
73935;PMS5003;62287;50.858;0.252;2023-06-22T02:24:01;8.0;8.0;
73935;PMS5003;62287;50.858;0.252;2023-06-22T02:24:32;7.0;7.0;
73935;PMS5003;62287;50.858;0.252;2023-06-22T02:25:03;7.0;7.0;
73935;PMS5003;62287;50.858;0.252;2023-06-22T02:25:34;8.0;8.0;
73935;PMS5003;62287;50.858;0.252;2023-06-22T02:26:06;6.0;6.0;
73935;PMS5003;62287;50.858;0.252;2023-06-22T02:26:37;9.0;8.0;
73935;PMS5003;62287;50.858;0.252;2023-06-22T02:27:08;8.0;7.0;
73935;PMS5003;62287;50.858;0.252;2023-06-22T02:27:39;6.0;6.0;
73935;PMS5003;62287;50.858;0.252;2023-06-22T02:28:10;6.0;6.0;
73935;PMS5003;62287;50.858;0.252;2023-06-22T02:28:41;7.0;7.0;
73935;PMS5003;62287;50.858;0.252;2023-06-22T02:29:12;6.0;5.0;
73935;PMS5003;62287;50.858;0.252;2023-06-22T02:29:43;6.0;6.0;
73935;PMS5003;62287;50.858;0.252;2023-06-22T02:30:14;11.0;8.0;
73935;PMS5003;62287;50.858;0.252;2023-06-22T02:30:45;6.0;6.0;
73935;PMS5003;62287;50.858;0.252;2023-06-22T02:31:16;11.0;10.0;
73935;PMS5003;62287;50.858;0.252;2023-06-22T02:31:47;8.0;7.0;
73935;PMS5003;62287;50.858;0.252;2023-06-22T02:32:18;8.0;8.0;
73935;PMS5003;62287;50.858;0.252;2023-06-22T02:32:49;6.0;6.0;
73935;PMS5003;62287;50.858;0.252;2023-06-22T02:33:20;11.0;10.0;
73935;PMS5003;62287;50.858;0.252;2023-06-22T02:33:51;9.0;7.0;
73935;PMS5003;62287;50.858;0.252;2023-06-22T02:34:22;11.0;10.0;
73935;PMS5003;62287;50.858;0.252;2023-06-22T02:34:53;8.0;7.0;
73935;PMS5003;62287;50.858;0.252;2023-06-22T02:35:24;8.0;6.0;
73935;PMS5003;62287;50.858;0.252;2023-06-22T02:35:55;8.0;8.0;
73935;PMS5003;62287;50.858;0.252;2023-06-22T02:36:26;8.0;7.0;
73935;PMS5003;62287;50.858;0.252;2023-06-22T02:36:57;5.0;5.0;
73935;PMS5003;62287;50.858;0.252;2023-06-22T02:37:28;7.0;7.0;
73935;PMS5003;62287;50.858;0.252;2023-06-22T02:37:59;5.0;5.0;
73935;PMS5003;62287;50.858;0.252;2023-06-22T02:38:30;9.0;9.0;
73935;PMS5003;62287;50.858;0.252;2023-06-22T02:39:01;8.0;7.0;
73935;PMS5003;62287;50.858;0.252;2023-06-22T02:39:32;10.0;9.0;
73935;PMS5003;62287;50.858;0.252;2023-06-22T02:40:04;6.0;6.0;
73935;PMS5003;62287;50.858;0.252;2023-06-22T02:40:36;7.0;7.0;
73935;PMS5003;62287;50.858;0.252;2023-06-22T02:41:07;10.0;8.0;
73935;PMS5003;62287;50.858;0.252;2023-06-22T02:41:37;9.0;8.0;
73935;PMS5003;62287;50.858;0.252;2023-06-22T02:42:08;8.0;8.0;
73935;PMS5003;62287;50.858;0.252;2023-06-22T02:42:39;9.0;9.0;
73935;PMS5003;62287;50.858;0.252;2023-06-22T02:43:10;6.0;6.0;
73935;PMS5003;62287;50.858;0.252;2023-06-22T02:43:41;9.0;7.0;
73935;PMS5003;62287;50.858;0.252;2023-06-22T02:44:12;7.0;7.0;
73935;PMS5003;62287;50.858;0.252;2023-06-22T02:44:43;9.0;9.0;
73935;PMS5003;62287;50.858;0.252;2023-06-22T02:45:14;7.0;5.0;
73935;PMS5003;62287;50.858;0.252;2023-06-22T02:45:45;6.0;6.0;
73935;PMS5003;62287;50.858;0.252;2023-06-22T02:46:16;9.0;9.0;
73935;PMS5003;62287;50.858;0.252;2023-06-22T02:46:47;8.0;8.0;
73935;PMS5003;62287;50.858;0.252;2023-06-22T02:47:18;7.0;5.0;
73935;PMS5003;62287;50.858;0.252;2023-06-22T02:47:49;7.0;7.0;
73935;PMS5003;62287;50.858;0.252;2023-06-22T02:48:20;6.0;6.0;
73935;PMS5003;62287;50.858;0.252;2023-06-22T02:48:51;9.0;7.0;
73935;PMS5003;62287;50.858;0.252;2023-06-22T02:49:23;8.0;7.0;
73935;PMS5003;62287;50.858;0.252;2023-06-22T02:49:54;5.0;5.0;
73935;PMS5003;62287;50.858;0.252;2023-06-22T02:50:25;8.0;6.0;
73935;PMS5003;62287;50.858;0.252;2023-06-22T02:50:57;6.0;6.0;
73935;PMS5003;62287;50.858;0.252;2023-06-22T02:51:28;7.0;7.0;
73935;PMS5003;62287;50.858;0.252;2023-06-22T02:52:00;9.0;8.0;
73935;PMS5003;62287;50.858;0.252;2023-06-22T02:52:31;9.0;7.0;
73935;PMS5003;62287;50.858;0.252;2023-06-22T02:53:02;4.0;4.0;
73935;PMS5003;62287;50.858;0.252;2023-06-22T02:53:33;8.0;7.0;
73935;PMS5003;62287;50.858;0.252;2023-06-22T02:54:04;7.0;7.0;
73935;PMS5003;62287;50.858;0.252;2023-06-22T02:54:35;6.0;6.0;
73935;PMS5003;62287;50.858;0.252;2023-06-22T02:55:06;5.0;5.0;
73935;PMS5003;62287;50.858;0.252;2023-06-22T02:55:38;6.0;6.0;
73935;PMS5003;62287;50.858;0.252;2023-06-22T02:56:09;6.0;6.0;
73935;PMS5003;62287;50.858;0.252;2023-06-22T02:56:40;8.0;7.0;
73935;PMS5003;62287;50.858;0.252;2023-06-22T02:57:11;8.0;7.0;
73935;PMS5003;62287;50.858;0.252;2023-06-22T02:57:42;8.0;8.0;
73935;PMS5003;62287;50.858;0.252;2023-06-22T02:58:13;6.0;6.0;
73935;PMS5003;62287;50.858;0.252;2023-06-22T02:58:44;6.0;6.0;
73935;PMS5003;62287;50.858;0.252;2023-06-22T02:59:15;7.0;6.0;
73935;PMS5003;62287;50.858;0.252;2023-06-22T02:59:46;8.0;7.0;
73935;PMS5003;62287;50.858;0.252;2023-06-22T03:00:17;6.0;6.0;
73935;PMS5003;62287;50.858;0.252;2023-06-22T03:00:48;9.0;6.0;
73935;PMS5003;62287;50.858;0.252;2023-06-22T03:01:19;6.0;4.0;
73935;PMS5003;62287;50.858;0.252;2023-06-22T03:01:50;7.0;6.0;
73935;PMS5003;62287;50.858;0.252;2023-06-22T03:02:21;10.0;10.0;
73935;PMS5003;62287;50.858;0.252;2023-06-22T03:02:52;6.0;6.0;
73935;PMS5003;62287;50.858;0.252;2023-06-22T03:03:22;6.0;6.0;
73935;PMS5003;62287;50.858;0.252;2023-06-22T03:03:54;6.0;6.0;
73935;PMS5003;62287;50.858;0.252;2023-06-22T03:04:24;8.0;8.0;
73935;PMS5003;62287;50.858;0.252;2023-06-22T03:04:55;7.0;7.0;
73935;PMS5003;62287;50.858;0.252;2023-06-22T03:05:26;9.0;7.0;
73935;PMS5003;62287;50.858;0.252;2023-06-22T03:05:57;6.0;5.0;
73935;PMS5003;62287;50.858;0.252;2023-06-22T03:06:28;4.0;4.0;
73935;PMS5003;62287;50.858;0.252;2023-06-22T03:06:59;8.0;6.0;
73935;PMS5003;62287;50.858;0.252;2023-06-22T03:07:30;8.0;7.0;
73935;PMS5003;62287;50.858;0.252;2023-06-22T03:08:01;7.0;7.0;
73935;PMS5003;62287;50.858;0.252;2023-06-22T03:08:32;5.0;5.0;
73935;PMS5003;62287;50.858;0.252;2023-06-22T03:09:03;8.0;7.0;
73935;PMS5003;62287;50.858;0.252;2023-06-22T03:09:35;8.0;7.0;
73935;PMS5003;62287;50.858;0.252;2023-06-22T03:10:06;6.0;6.0;
73935;PMS5003;62287;50.858;0.252;2023-06-22T03:10:39;7.0;7.0;
73935;PMS5003;62287;50.858;0.252;2023-06-22T03:11:09;6.0;6.0;
73935;PMS5003;62287;50.858;0.252;2023-06-22T03:11:40;7.0;7.0;
73935;PMS5003;62287;50.858;0.252;2023-06-22T03:12:11;6.0;6.0;
73935;PMS5003;62287;50.858;0.252;2023-06-22T03:12:42;6.0;6.0;
73935;PMS5003;62287;50.858;0.252;2023-06-22T03:13:14;7.0;7.0;
73935;PMS5003;62287;50.858;0.252;2023-06-22T03:13:45;5.0;5.0;
73935;PMS5003;62287;50.858;0.252;2023-06-22T03:14:16;7.0;7.0;
73935;PMS5003;62287;50.858;0.252;2023-06-22T03:14:46;7.0;7.0;
73935;PMS5003;62287;50.858;0.252;2023-06-22T03:15:17;6.0;6.0;
73935;PMS5003;62287;50.858;0.252;2023-06-22T03:15:48;9.0;7.0;
73935;PMS5003;62287;50.858;0.252;2023-06-22T03:16:19;13.0;11.0;
73935;PMS5003;62287;50.858;0.252;2023-06-22T03:16:50;9.0;9.0;
73935;PMS5003;62287;50.858;0.252;2023-06-22T03:17:21;7.0;7.0;
73935;PMS5003;62287;50.858;0.252;2023-06-22T03:17:52;8.0;7.0;
73935;PMS5003;62287;50.858;0.252;2023-06-22T03:18:23;6.0;6.0;
73935;PMS5003;62287;50.858;0.252;2023-06-22T03:18:54;8.0;8.0;
73935;PMS5003;62287;50.858;0.252;2023-06-22T03:19:25;7.0;6.0;
73935;PMS5003;62287;50.858;0.252;2023-06-22T03:19:56;7.0;7.0;
73935;PMS5003;62287;50.858;0.252;2023-06-22T03:20:27;8.0;8.0;
73935;PMS5003;62287;50.858;0.252;2023-06-22T03:20:58;7.0;6.0;
73935;PMS5003;62287;50.858;0.252;2023-06-22T03:21:28;5.0;5.0;
73935;PMS5003;62287;50.858;0.252;2023-06-22T03:22:00;5.0;4.0;
73935;PMS5003;62287;50.858;0.252;2023-06-22T03:22:31;6.0;4.0;
73935;PMS5003;62287;50.858;0.252;2023-06-22T03:23:02;5.0;5.0;
73935;PMS5003;62287;50.858;0.252;2023-06-22T03:23:32;4.0;4.0;
73935;PMS5003;62287;50.858;0.252;2023-06-22T03:24:04;5.0;5.0;
73935;PMS5003;62287;50.858;0.252;2023-06-22T03:24:35;7.0;4.0;
73935;PMS5003;62287;50.858;0.252;2023-06-22T03:25:06;7.0;7.0;
73935;PMS5003;62287;50.858;0.252;2023-06-22T03:25:38;10.0;10.0;